Time;durP1;ratioP1;P1;durP2;ratioP2;P2;SDS_P1;SDS_P2;PMS_P1;PMS_P2;Temp;Humidity;BMP_temperature;BMP_pressure;BME280_temperature;BME280_humidity;BME280_pressure;Samples;Min_cycle;Max_cycle;Signal;HPM_P1;HPM_P2
2022/09/06 00:01:37;;;;;;;10.73;6.03;;;;;;;15.42;88.47;95514.81;5090420;28;20260;-74
2022/09/06 00:04:03;;;;;;;8.73;4.10;;;;;;;15.40;88.44;95514.22;5090368;28;20174;-74
2022/09/06 00:06:28;;;;;;;9.77;4.90;;;;;;;15.44;88.17;95516.22;5090343;28;20174;-73
2022/09/06 00:08:53;;;;;;;6.97;4.00;;;;;;;15.48;88.05;95514.72;5090260;28;20607;-73
2022/09/06 00:11:19;;;;;;;9.07;3.33;;;;;;;15.50;87.64;95509.19;5090255;28;20212;-73
2022/09/06 00:13:45;;;;;;;8.63;5.38;;;;;;;15.42;87.67;95493.59;5090710;28;20181;-73
2022/09/06 00:16:18;;;;;;;7.30;3.60;;;;;;;15.49;87.66;95524.31;5090546;28;20280;-73
2022/09/06 00:18:44;;;;;;;6.33;3.83;;;;;;;15.47;87.63;95517.63;5072329;28;20188;-73
2022/09/06 00:21:20;;;;;;;5.20;3.92;;;;;;;15.49;87.78;95513.69;5090346;28;20189;-73
2022/09/06 00:23:46;;;;;;;9.20;4.63;;;;;;;15.53;87.76;95507.94;5093449;28;20205;-73
2022/09/06 00:26:11;;;;;;;6.05;3.33;;;;;;;15.48;87.34;95516.56;5094228;28;20212;-74
2022/09/06 00:28:38;;;;;;;10.25;5.30;;;;;;;15.42;87.50;95507.66;5094414;28;20177;-73
2022/09/06 00:31:16;;;;;;;11.70;4.70;;;;;;;15.47;87.52;95501.72;5094092;28;20264;-73
2022/09/06 00:33:42;;;;;;;8.25;3.80;;;;;;;15.46;87.35;95506.22;5094027;28;20523;-73
2022/09/06 00:36:08;;;;;;;4.50;3.23;;;;;;;15.45;87.07;95504.59;5093995;28;20787;-73
2022/09/06 00:38:34;;;;;;;8.07;4.15;;;;;;;15.44;87.19;95502.97;5093858;28;20185;-73
2022/09/06 00:40:59;;;;;;;10.35;6.18;;;;;;;15.44;87.73;95510.91;5093775;28;20268;-73
2022/09/06 00:43:25;;;;;;;7.13;3.97;;;;;;;15.49;87.55;95510.22;5093579;28;20181;-73
2022/09/06 00:45:52;;;;;;;10.55;4.47;;;;;;;15.47;87.40;95507.81;5093656;28;20566;-73
2022/09/06 00:48:18;;;;;;;6.15;3.10;;;;;;;15.43;87.15;95506.63;5093483;28;20269;-73
2022/09/06 00:50:47;;;;;;;11.17;3.60;;;;;;;15.35;87.34;95500.84;5093591;28;20245;-73
2022/09/06 00:53:13;;;;;;;10.13;6.63;;;;;;;15.39;87.28;95505.47;5093618;28;20228;-73
2022/09/06 00:55:40;;;;;;;14.07;8.60;;;;;;;15.38;87.71;95513.66;5093714;28;20212;-73
2022/09/06 00:58:06;;;;;;;6.57;4.00;;;;;;;15.37;87.11;95518.16;5093612;28;20292;-73
2022/09/06 01:00:32;;;;;;;14.43;6.20;;;;;;;15.36;87.23;95515.72;5093534;28;20660;-73
2022/09/06 01:02:57;;;;;;;4.88;3.22;;;;;;;15.36;87.61;95513.88;5093574;28;20177;-73
2022/09/06 01:05:32;;;;;;;12.40;7.03;;;;;;;15.37;87.55;95522.66;5093383;28;20182;-73
2022/09/06 01:08:12;;;;;;;7.83;5.47;;;;;;;15.32;87.28;95514.53;5075542;28;20605;-73
2022/09/06 01:10:43;;;;;;;7.83;5.30;;;;;;;15.28;87.54;95516.84;5093577;28;20181;-73
2022/09/06 01:13:11;;;;;;;12.87;7.03;;;;;;;15.28;87.70;95508.88;5093291;28;20209;-73
2022/09/06 01:16:18;;;;;;;9.57;5.10;;;;;;;15.28;87.58;95519.50;5092996;28;20185;-73
2022/09/06 01:19:02;;;;;;;6.43;3.50;;;;;;;15.23;87.65;95510.56;5048306;28;20217;-73
2022/09/06 01:21:46;;;;;;;5.43;3.93;;;;;;;15.22;87.65;95509.75;5093101;28;20239;-73
2022/09/06 01:24:37;;;;;;;12.03;3.87;;;;;;;15.20;87.92;95511.84;5093095;28;20177;-73
2022/09/06 01:27:11;;;;;;;7.30;3.43;;;;;;;15.10;88.01;95506.25;5093083;28;20260;-73
2022/09/06 01:29:47;;;;;;;7.50;3.92;;;;;;;14.98;88.50;95510.66;5089270;28;20185;-73
2022/09/06 01:32:31;;;;;;;6.37;3.57;;;;;;;14.82;89.09;95509.44;5091621;28;20238;-73
2022/09/06 01:35:22;;;;;;;6.93;3.90;;;;;;;14.70;89.46;95509.34;5075071;28;21034;-73
2022/09/06 01:37:48;;;;;;;6.20;3.40;;;;;;;14.68;90.15;95503.47;5072717;28;20189;-73
2022/09/06 01:40:13;;;;;;;12.73;6.87;;;;;;;14.73;89.99;95503.59;5072532;28;20254;-73
2022/09/06 01:42:42;;;;;;;9.05;5.35;;;;;;;14.82;89.28;95501.47;5072644;28;20194;-73
2022/09/06 01:45:11;;;;;;;6.43;3.87;;;;;;;14.65;88.68;95460.69;5072627;28;20181;-73
2022/09/06 01:47:39;;;;;;;9.93;6.90;;;;;;;14.90;88.76;95495.06;5072641;28;20174;-73
2022/09/06 01:50:20;;;;;;;13.30;6.83;;;;;;;14.93;88.41;95497.28;5072383;28;20178;-73
2022/09/06 01:52:55;;;;;;;12.37;5.97;;;;;;;14.94;88.34;95493.59;5072297;28;20170;-73
2022/09/06 01:55:25;;;;;;;6.83;3.70;;;;;;;14.76;88.27;95461.78;5072366;28;20648;-73
2022/09/06 01:58:12;;;;;;;11.17;4.23;;;;;;;14.89;87.93;95478.34;5072401;28;20174;-73
2022/09/06 02:00:54;;;;;;;9.37;5.40;;;;;;;14.88;88.03;95476.72;5072097;28;20226;-73
2022/09/06 02:03:51;;;;;;;9.83;4.70;;;;;;;14.92;88.11;95483.22;5071938;28;20287;-73
2022/09/06 02:06:25;;;;;;;7.97;4.90;;;;;;;14.88;87.83;95486.50;5072094;28;20178;-73
2022/09/06 02:08:59;;;;;;;5.67;3.57;;;;;;;14.80;87.90;95489.47;5072152;28;20174;-74
2022/09/06 02:11:30;;;;;;;10.07;4.30;;;;;;;14.76;88.02;95486.47;5071899;28;20179;-73
2022/09/06 02:14:02;;;;;;;8.30;4.00;;;;;;;14.70;88.41;95477.53;5071956;28;20178;-73
2022/09/06 02:16:31;;;;;;;7.70;4.50;;;;;;;14.69;88.32;95483.88;5071964;28;20221;-73
2022/09/06 02:19:08;;;;;;;13.50;7.53;;;;;;;14.67;88.43;95485.13;5071809;28;20201;-73
2022/09/06 02:21:37;;;;;;;17.07;8.13;;;;;;;14.67;88.30;95485.94;5071692;28;20197;-73
2022/09/06 02:24:06;;;;;;;21.07;10.67;;;;;;;14.67;88.22;95482.47;5071848;28;20186;-73
2022/09/06 02:26:36;;;;;;;18.73;10.10;;;;;;;14.66;88.60;95484.31;5071797;28;20182;-74
2022/09/06 02:29:02;;;;;;;15.33;8.83;;;;;;;14.64;88.11;95485.56;5071852;28;20186;-73
2022/09/06 02:31:32;;;;;;;19.87;10.83;;;;;;;14.66;88.12;95486.16;5071674;28;20235;-73
2022/09/06 02:33:58;;;;;;;21.27;12.87;;;;;;;14.66;87.91;95489.63;5079545;28;20681;-74
2022/09/06 02:36:24;;;;;;;25.20;11.53;;;;;;;14.61;88.41;95489.50;5091939;28;20173;-73
2022/09/06 02:38:50;;;;;;;31.67;12.17;;;;;;;14.55;88.44;95484.22;5091616;28;20186;-73
2022/09/06 02:41:21;;;;;;;19.37;10.17;;;;;;;14.57;88.47;95480.34;5091587;28;20185;-73
2022/09/06 02:43:46;;;;;;;13.80;6.87;;;;;;;14.58;88.54;95489.91;5091578;28;20181;-74
2022/09/06 02:46:12;;;;;;;14.07;6.67;;;;;;;14.61;88.23;95494.78;5091679;28;20663;-73
2022/09/06 02:48:37;;;;;;;7.70;5.20;;;;;;;14.58;88.19;95497.88;5091450;28;20260;-73
2022/09/06 02:51:04;;;;;;;10.97;6.20;;;;;;;14.51;88.38;95486.53;5091472;28;20188;-74
2022/09/06 02:53:30;;;;;;;11.77;5.67;;;;;;;14.58;88.41;95497.88;5091605;28;20200;-73
2022/09/06 02:55:56;;;;;;;11.03;5.80;;;;;;;14.57;88.35;95490.13;5091403;28;20552;-73
2022/09/06 02:58:21;;;;;;;12.47;6.80;;;;;;;14.59;88.14;95483.59;5091318;28;20197;-73
2022/09/06 03:00:48;;;;;;;14.40;8.10;;;;;;;14.58;88.17;95492.56;5091163;28;20177;-73
2022/09/06 03:03:14;;;;;;;13.70;8.10;;;;;;;14.60;88.00;95487.88;5091229;28;20216;-73
2022/09/06 03:05:40;;;;;;;18.07;8.17;;;;;;;14.62;87.62;95482.31;5091432;28;20180;-73
2022/09/06 03:08:06;;;;;;;12.63;6.77;;;;;;;14.58;87.92;95487.25;5091004;28;20178;-73
2022/09/06 03:10:31;;;;;;;13.03;6.50;;;;;;;14.57;87.87;95490.13;5091098;28;20263;-73
2022/09/06 03:12:57;;;;;;;9.63;6.93;;;;;;;14.54;87.94;95490.56;5091328;28;20247;-73
2022/09/06 03:15:22;;;;;;;11.77;7.07;;;;;;;14.53;87.54;95491.63;5091132;28;20965;-72
2022/09/06 03:17:48;;;;;;;17.77;7.27;;;;;;;14.47;87.52;95492.47;5091027;28;20182;-72
2022/09/06 03:20:14;;;;;;;11.37;6.60;;;;;;;14.46;87.73;95486.34;5090451;28;20266;-72
2022/09/06 03:22:39;;;;;;;11.20;5.97;;;;;;;14.45;87.85;95492.69;5090761;28;20660;-72
2022/09/06 03:25:06;;;;;;;10.57;6.10;;;;;;;14.24;87.66;95467.41;5090920;28;20574;-72
2022/09/06 03:27:32;;;;;;;8.73;5.37;;;;;;;14.41;88.06;95488.88;5090828;28;20186;-73
2022/09/06 03:29:57;;;;;;;10.00;5.57;;;;;;;14.42;88.18;95494.97;5090693;28;20195;-73
2022/09/06 03:32:23;;;;;;;10.00;5.73;;;;;;;14.41;87.82;95498.66;5090854;28;20527;-73
2022/09/06 03:34:48;;;;;;;8.63;5.07;;;;;;;14.38;87.62;95502.50;5090675;28;20248;-73
2022/09/06 03:37:14;;;;;;;6.53;4.30;;;;;;;14.33;87.87;95497.88;5090553;28;20240;-73
2022/09/06 03:39:40;;;;;;;9.67;4.73;;;;;;;14.25;88.41;95510.59;5090750;28;20240;-73
2022/09/06 03:42:05;;;;;;;9.67;5.17;;;;;;;14.22;88.69;95508.34;5090678;28;20676;-73
2022/09/06 03:44:31;;;;;;;11.83;6.20;;;;;;;14.08;88.32;95491.78;5090767;28;20187;-73
2022/09/06 03:46:57;;;;;;;16.27;6.30;;;;;;;14.16;88.74;95496.00;5090654;28;20706;-73
2022/09/06 03:49:23;;;;;;;12.53;6.87;;;;;;;14.23;88.73;95505.50;5090622;28;20189;-73
2022/09/06 03:51:48;;;;;;;15.63;6.30;;;;;;;14.24;88.49;95508.97;5090578;28;20174;-73
2022/09/06 03:54:14;;;;;;;9.83;6.07;;;;;;;14.26;88.33;95517.50;5090893;28;20185;-73
2022/09/06 03:56:39;;;;;;;9.77;5.80;;;;;;;14.22;88.68;95519.75;5091005;28;20247;-73
2022/09/06 03:59:05;;;;;;;15.40;6.33;;;;;;;14.23;88.58;95520.56;5097216;28;20177;-72
2022/09/06 04:01:30;;;;;;;19.20;8.33;;;;;;;14.22;88.50;95518.94;5096616;28;20189;-73
2022/09/06 04:03:55;;;;;;;15.00;7.57;;;;;;;14.19;88.69;95519.38;5096515;28;20188;-73
2022/09/06 04:06:21;;;;;;;13.90;7.50;;;;;;;14.15;89.09;95513.72;5096828;28;20181;-73
2022/09/06 04:08:46;;;;;;;16.17;7.97;;;;;;;14.01;88.96;95498.16;5096852;28;20256;-73
2022/09/06 04:11:12;;;;;;;15.67;8.30;;;;;;;14.17;89.19;95524.91;5096665;28;20642;-73
2022/09/06 04:13:37;;;;;;;13.03;6.33;;;;;;;14.16;89.05;95520.63;5096811;28;20188;-73
2022/09/06 04:16:04;;;;;;;14.23;6.87;;;;;;;14.16;88.83;95520.63;5096452;28;20604;-73
2022/09/06 04:18:29;;;;;;;15.50;6.77;;;;;;;14.15;89.01;95513.72;5096629;28;20253;-73
2022/09/06 04:20:55;;;;;;;9.40;5.03;;;;;;;14.12;89.37;95513.31;5096514;28;20268;-72
2022/09/06 04:23:26;;;;;;;10.27;5.20;;;;;;;14.15;89.50;95512.91;5096268;28;20201;-72
2022/09/06 04:25:54;;;;;;;8.40;5.60;;;;;;;14.24;89.14;95509.78;5096978;28;20177;-73
2022/09/06 04:28:20;;;;;;;12.67;5.33;;;;;;;14.30;89.32;95516.03;5096503;28;20187;-73
2022/09/06 04:30:56;;;;;;;10.70;5.67;;;;;;;14.35;89.25;95521.50;5096507;28;20185;-72
2022/09/06 04:33:25;;;;;;;13.13;5.40;;;;;;;14.41;89.05;95522.50;5094048;28;20228;-71
2022/09/06 04:35:59;;;;;;;14.43;5.60;;;;;;;14.49;88.86;95519.56;5096272;28;20169;-71
2022/09/06 04:38:27;;;;;;;12.60;5.30;;;;;;;14.23;88.73;95476.38;5096426;28;20208;-72
2022/09/06 04:40:54;;;;;;;13.17;5.77;;;;;;;14.49;88.59;95517.72;5096166;28;20181;-72
2022/09/06 04:43:20;;;;;;;6.37;4.70;;;;;;;14.50;89.00;95519.34;5095912;28;20200;-72
2022/09/06 04:45:45;;;;;;;10.00;5.13;;;;;;;14.55;89.20;95521.31;5096284;28;20260;-73
2022/09/06 04:48:11;;;;;;;11.53;5.20;;;;;;;14.59;89.51;95509.28;5096444;28;20252;-72
2022/09/06 04:50:37;;;;;;;6.37;4.40;;;;;;;14.69;89.02;95518.34;5096384;28;20177;-73
2022/09/06 04:53:02;;;;;;;9.17;5.07;;;;;;;14.72;89.43;95514.41;5096728;28;20178;-72
2022/09/06 04:55:30;;;;;;;9.33;5.37;;;;;;;14.87;89.17;95516.72;5096278;28;21779;-72
2022/09/06 04:57:59;;;;;;;13.63;5.13;;;;;;;15.10;88.36;95508.91;5096044;28;20177;-72
2022/09/06 05:00:30;;;;;;;8.30;5.05;;;;;;;15.56;86.87;95515.50;5096450;28;20181;-72
2022/09/06 05:02:56;;;;;;;8.57;4.25;;;;;;;16.01;86.27;95513.19;5081110;28;20194;-72
2022/09/06 05:05:21;;;;;;;5.97;4.68;;;;;;;16.52;84.20;95515.19;5074814;28;20168;-72
2022/09/06 05:07:50;;;;;;;6.63;4.50;;;;;;;16.88;82.28;95504.34;5076184;28;20232;-72
2022/09/06 05:10:15;;;;;;;11.77;5.00;;;;;;;17.38;80.33;95516.28;5071535;28;20653;-73
2022/09/06 05:12:41;;;;;;;7.60;4.25;;;;;;;17.71;77.68;95524.38;5073220;28;20182;-72
2022/09/06 05:15:07;;;;;;;7.80;4.40;;;;;;;18.08;76.14;95519.44;5073322;28;20265;-72
2022/09/06 05:17:32;;;;;;;6.40;4.10;;;;;;;18.39;75.36;95520.75;5073226;28;20190;-72
2022/09/06 05:19:58;;;;;;;8.60;4.25;;;;;;;18.77;74.60;95522.66;5072926;28;20170;-72
2022/09/06 05:22:23;;;;;;;8.65;4.03;;;;;;;19.12;73.38;95528.50;5072746;28;20224;-72
2022/09/06 05:24:48;;;;;;;9.70;4.15;;;;;;;19.42;72.18;95519.25;5072978;28;20563;-73
2022/09/06 05:27:14;;;;;;;6.07;3.80;;;;;;;19.65;71.42;95529.69;5072827;28;20531;-73
2022/09/06 05:29:39;;;;;;;10.23;4.32;;;;;;;19.74;70.43;95522.03;5072809;28;20189;-73
2022/09/06 05:32:05;;;;;;;10.98;4.28;;;;;;;19.86;70.52;95520.84;5072780;28;20174;-73
2022/09/06 05:34:31;;;;;;;10.63;4.20;;;;;;;19.96;69.69;95523.63;5085172;28;20252;-73
2022/09/06 05:36:58;;;;;;;10.48;4.53;;;;;;;19.88;69.81;95499.22;5092846;28;20288;-73
2022/09/06 05:39:24;;;;;;;6.80;4.15;;;;;;;20.03;69.02;95528.75;5092833;28;20616;-74
2022/09/06 05:41:49;;;;;;;11.32;4.25;;;;;;;20.10;68.66;95520.53;5092667;28;20205;-74
2022/09/06 05:44:15;;;;;;;8.82;4.90;;;;;;;20.17;69.21;95527.25;5092944;28;20260;-74
2022/09/06 05:46:47;;;;;;;6.70;4.05;;;;;;;20.13;68.11;95528.84;5092876;28;20181;-75
2022/09/06 05:49:12;;;;;;;9.02;5.45;;;;;;;20.07;68.32;95523.69;5092737;28;20247;-74
2022/09/06 05:51:39;;;;;;;7.40;3.72;;;;;;;20.15;68.84;95529.38;5093010;28;20174;-76
2022/09/06 05:54:05;;;;;;;11.32;6.90;;;;;;;20.27;69.30;95524.69;5092597;28;20196;-74
2022/09/06 05:56:30;;;;;;;7.78;4.55;;;;;;;20.47;67.60;95513.38;5092886;28;20162;-75
2022/09/06 05:58:56;;;;;;;6.13;3.97;;;;;;;20.59;67.23;95514.00;5092805;28;20692;-74
2022/09/06 06:01:26;;;;;;;9.90;6.38;;;;;;;20.60;66.64;95518.28;5092459;28;20559;-74
2022/09/06 06:03:59;;;;;;;6.65;4.30;;;;;;;20.62;65.79;95513.47;5092394;28;20240;-73
2022/09/06 06:06:28;;;;;;;7.35;4.63;;;;;;;20.70;66.01;95515.69;5092417;28;20177;-74
2022/09/06 06:08:54;;;;;;;14.90;5.78;;;;;;;20.68;66.75;95515.13;5092433;28;20228;-74
2022/09/06 06:11:19;;;;;;;9.85;4.95;;;;;;;20.77;66.24;95488.69;5092105;28;20173;-74
2022/09/06 06:13:45;;;;;;;6.07;4.20;;;;;;;21.09;66.48;95510.03;5092214;28;20253;-74
2022/09/06 06:16:19;;;;;;;8.00;4.90;;;;;;;21.58;65.47;95505.16;5091971;28;20619;-74
2022/09/06 06:18:45;;;;;;;8.68;4.40;;;;;;;21.98;62.92;95503.66;5091303;28;20176;-74
2022/09/06 06:21:18;;;;;;;7.72;4.32;;;;;;;22.17;62.53;95502.88;5090934;28;20166;-74
2022/09/06 06:23:45;;;;;;;14.30;3.95;;;;;;;22.30;62.96;95500.75;5091255;28;20184;-74
2022/09/06 06:26:11;;;;;;;5.45;4.10;;;;;;;22.52;61.69;95503.97;5091469;28;20188;-74
2022/09/06 06:28:38;;;;;;;10.77;4.20;;;;;;;22.64;61.66;95506.38;5091573;28;20216;-74
2022/09/06 06:31:05;;;;;;;7.53;4.13;;;;;;;22.78;60.98;95508.25;5092099;28;20260;-74
2022/09/06 06:33:31;;;;;;;7.47;4.90;;;;;;;22.86;61.35;95491.59;5091656;28;20218;-74
2022/09/06 06:36:17;;;;;;;12.43;4.25;;;;;;;23.11;59.70;95503.34;5091870;28;20278;-74
2022/09/06 06:38:44;;;;;;;7.32;4.65;;;;;;;23.16;59.96;95497.97;5091452;28;20188;-74
2022/09/06 06:41:12;;;;;;;5.90;4.05;;;;;;;23.25;58.11;95501.69;5091840;28;20176;-74
2022/09/06 06:43:38;;;;;;;8.63;4.25;;;;;;;22.90;59.18;95495.34;5091703;28;20182;-74
2022/09/06 06:46:12;;;;;;;17.10;5.47;;;;;;;22.57;59.92;95502.06;5091606;28;20178;-74
2022/09/06 06:48:40;;;;;;;13.43;4.68;;;;;;;22.53;60.68;95497.53;5091604;28;20174;-74
2022/09/06 06:51:06;;;;;;;7.85;4.60;;;;;;;22.56;60.55;95497.78;5091492;28;20177;-73
2022/09/06 06:53:32;;;;;;;14.82;5.50;;;;;;;22.86;62.01;95496.16;5091258;28;20169;-74
2022/09/06 06:55:58;;;;;;;5.47;4.57;;;;;;;23.25;58.54;95485.56;5091343;28;20272;-74
2022/09/06 06:58:23;;;;;;;7.10;4.18;;;;;;;23.60;56.52;95493.50;5091532;28;20268;-74
2022/09/06 07:00:49;;;;;;;7.18;4.68;;;;;;;23.74;57.03;95474.06;5091349;28;20177;-74
2022/09/06 07:03:14;;;;;;;7.63;4.57;;;;;;;24.32;55.30;95491.16;5091244;28;20197;-74
2022/09/06 07:05:44;;;;;;;10.73;5.03;;;;;;;24.39;54.60;95500.53;5091116;28;20176;-74
2022/09/06 07:08:10;;;;;;;8.27;4.63;;;;;;;24.48;54.51;95502.63;5073052;28;20190;-74
2022/09/06 07:10:36;;;;;;;6.00;4.75;;;;;;;24.57;55.29;95495.53;5084141;28;20597;-74
2022/09/06 07:13:01;;;;;;;5.55;4.35;;;;;;;24.88;54.50;95496.88;5088870;28;20722;-75
2022/09/06 07:15:27;;;;;;;11.32;4.75;;;;;;;25.25;54.20;95503.53;5088687;28;20667;-74
2022/09/06 07:17:56;;;;;;;8.30;4.90;;;;;;;25.60;52.48;95503.09;5081570;28;20186;-74
2022/09/06 07:20:22;;;;;;;6.53;4.78;;;;;;;25.91;50.49;95508.91;5083631;28;20185;-74
2022/09/06 07:22:58;;;;;;;7.32;5.05;;;;;;;25.94;50.22;95502.94;5083133;28;20448;-74
2022/09/06 07:25:24;;;;;;;10.07;6.00;;;;;;;25.51;51.40;95507.53;5085923;28;20173;-74
2022/09/06 07:27:58;;;;;;;16.25;6.03;;;;;;;25.02;52.22;95508.59;5082184;28;20541;-74
2022/09/06 07:30:23;;;;;;;6.88;4.93;;;;;;;25.04;56.08;95498.34;5087167;28;20177;-74
2022/09/06 07:32:49;;;;;;;17.25;6.03;;;;;;;25.13;51.84;95483.16;5086763;28;20176;-74
2022/09/06 07:35:15;;;;;;;10.48;5.28;;;;;;;24.94;51.71;95501.16;5083793;28;20245;-74
2022/09/06 07:37:40;;;;;;;7.97;5.05;;;;;;;24.85;53.23;95483.16;5081338;28;20193;-74
2022/09/06 07:40:06;;;;;;;8.80;5.68;;;;;;;25.02;52.20;95495.13;5085253;28;20188;-74
2022/09/06 07:42:31;;;;;;;7.90;4.88;;;;;;;25.32;52.29;95504.78;5087094;28;20249;-74
2022/09/06 07:44:59;;;;;;;14.02;4.50;;;;;;;25.37;51.52;95502.00;5085077;28;20170;-74
2022/09/06 07:47:24;;;;;;;6.18;4.35;;;;;;;25.74;49.91;95506.72;5086568;28;20177;-74
2022/09/06 07:49:50;;;;;;;7.43;4.75;;;;;;;25.44;50.53;95504.34;5086648;28;20659;-74
2022/09/06 07:52:15;;;;;;;7.60;4.72;;;;;;;25.29;50.50;95502.66;5081348;28;20184;-75
2022/09/06 07:54:41;;;;;;;6.32;4.95;;;;;;;25.37;51.30;95496.63;5088943;28;20284;-74
2022/09/06 07:57:06;;;;;;;6.50;4.40;;;;;;;25.87;51.02;95502.47;5083740;28;20178;-74
2022/09/06 07:59:31;;;;;;;6.75;4.60;;;;;;;26.36;51.04;95495.84;5080760;28;20234;-74
2022/09/06 08:01:57;;;;;;;7.47;4.22;;;;;;;26.78;49.24;95495.69;5081683;28;20192;-74
2022/09/06 08:04:22;;;;;;;9.10;4.72;;;;;;;26.91;47.56;95483.31;5088845;28;20612;-75
2022/09/06 08:06:50;;;;;;;6.68;4.28;;;;;;;27.32;46.95;95496.88;5088910;28;20182;-75
2022/09/06 08:09:19;;;;;;;6.63;4.47;;;;;;;27.50;47.67;95495.19;5088610;28;20208;-74
2022/09/06 08:11:44;;;;;;;6.53;4.50;;;;;;;27.20;47.64;95491.16;5089140;28;20169;-75
2022/09/06 08:14:10;;;;;;;13.70;5.40;;;;;;;27.23;47.17;95488.66;5087621;28;20656;-75
2022/09/06 08:16:36;;;;;;;8.30;4.72;;;;;;;27.27;47.54;95486.94;5088444;28;20273;-75
2022/09/06 08:19:07;;;;;;;6.72;4.40;;;;;;;27.18;46.12;95491.44;5086082;28;20181;-74
2022/09/06 08:21:33;;;;;;;9.05;4.03;;;;;;;27.19;46.18;95487.66;5088364;28;20231;-74
2022/09/06 08:24:02;;;;;;;7.10;4.10;;;;;;;27.42;46.11;95488.53;5085691;28;20579;-74
2022/09/06 08:26:29;;;;;;;18.20;4.70;;;;;;;27.53;46.89;95495.34;5084825;28;20174;-74
2022/09/06 08:29:06;;;;;;;5.15;3.97;;;;;;;27.72;45.59;95490.66;5085539;28;20177;-75
2022/09/06 08:31:33;;;;;;;8.65;3.95;;;;;;;27.81;46.25;95490.75;5084701;28;20553;-75
2022/09/06 08:34:00;;;;;;;8.50;4.63;;;;;;;27.78;45.04;95486.72;5082444;28;20214;-74
2022/09/06 08:36:28;;;;;;;6.75;4.10;;;;;;;27.42;46.07;95475.81;5078506;28;20700;-75
2022/09/06 08:38:54;;;;;;;7.82;3.97;;;;;;;27.49;45.59;95472.72;5083426;28;20173;-74
2022/09/06 08:41:28;;;;;;;11.85;4.70;;;;;;;26.83;46.53;95470.47;5086142;28;20270;-74
2022/09/06 08:44:02;;;;;;;6.72;3.70;;;;;;;26.81;50.33;95464.56;5082575;28;20260;-75
2022/09/06 08:46:39;;;;;;;5.53;4.00;;;;;;;26.73;48.31;95471.44;5088398;28;20197;-75
2022/09/06 08:49:05;;;;;;;6.00;3.47;;;;;;;26.38;47.72;95463.97;5087015;28;20246;-76
2022/09/06 08:51:45;;;;;;;9.00;4.20;;;;;;;26.14;47.27;95464.03;5086496;28;20320;-74
2022/09/06 08:54:51;;;;;;;4.63;4.07;;;;;;;25.95;47.87;95455.16;5084890;28;20636;-74
2022/09/06 08:57:25;;;;;;;6.97;3.40;;;;;;;26.20;49.34;95446.69;5063419;28;20232;-75
2022/09/06 08:59:55;;;;;;;8.60;4.07;;;;;;;26.54;47.67;95447.22;5092019;28;20193;-74
2022/09/06 09:02:21;;;;;;;5.95;3.70;;;;;;;26.65;51.03;95445.91;5084969;28;20186;-74
2022/09/06 09:04:57;;;;;;;5.55;4.00;;;;;;;26.96;47.25;95446.19;5090817;28;20192;-74
2022/09/06 09:07:43;;;;;;;5.90;4.10;;;;;;;26.87;46.31;95433.63;5086628;28;20173;-74
2022/09/06 09:10:16;;;;;;;5.97;4.45;;;;;;;26.77;46.95;95434.63;5091606;28;20685;-74
2022/09/06 09:12:45;;;;;;;8.23;4.43;;;;;;;26.44;48.29;95428.47;5086064;28;20204;-74
2022/09/06 09:15:13;;;;;;;6.35;4.32;;;;;;;26.27;47.66;95425.53;5084531;28;21097;-74
2022/09/06 09:17:39;;;;;;;8.52;4.05;;;;;;;26.24;48.97;95426.06;5090472;28;20188;-74
2022/09/06 09:20:07;;;;;;;4.20;3.47;;;;;;;26.26;47.58;95421.22;5087672;28;20961;-74
2022/09/06 09:22:33;;;;;;;10.63;3.53;;;;;;;26.13;46.41;95413.84;5092505;28;20468;-74
2022/09/06 09:25:00;;;;;;;9.68;3.58;;;;;;;26.06;48.09;95416.91;5092397;28;20177;-74
2022/09/06 09:27:27;;;;;;;5.63;4.20;;;;;;;25.71;48.10;95417.44;5092018;28;20200;-74
2022/09/06 09:29:53;;;;;;;5.72;3.47;;;;;;;25.60;47.68;95413.31;5091455;28;20201;-74
2022/09/06 09:32:31;;;;;;;8.05;3.95;;;;;;;25.59;47.29;95409.00;5091261;28;20177;-74
2022/09/06 09:35:16;;;;;;;3.70;3.25;;;;;;;25.46;49.48;95407.81;5089329;28;20354;-74
2022/09/06 09:37:45;;;;;;;9.48;4.15;;;;;;;25.51;48.83;95407.75;5089979;28;20656;-74
2022/09/06 09:40:23;;;;;;;6.00;4.22;;;;;;;25.62;50.33;95393.03;5088091;28;20687;-74
2022/09/06 09:42:49;;;;;;;4.90;3.40;;;;;;;25.90;49.45;95393.97;5089108;28;20280;-74
2022/09/06 09:45:30;;;;;;;3.40;3.10;;;;;;;25.60;47.16;95399.84;5090999;28;20170;-74
2022/09/06 09:47:55;;;;;;;3.85;3.38;;;;;;;25.41;47.71;95397.09;5091305;28;20162;-74
2022/09/06 09:50:23;;;;;;;6.00;3.83;;;;;;;25.33;48.33;95392.34;5091153;28;20188;-75
2022/09/06 09:52:48;;;;;;;5.25;3.50;;;;;;;25.42;49.91;95387.91;5091394;28;20189;-76
2022/09/06 09:55:14;;;;;;;5.40;3.75;;;;;;;25.48;51.07;95394.84;5088485;28;20634;-74
2022/09/06 09:57:47;;;;;;;7.90;4.00;;;;;;;25.43;49.57;95386.81;5090994;28;20192;-74
2022/09/06 10:00:13;;;;;;;6.93;4.80;;;;;;;25.61;51.50;95380.63;5090540;28;20263;-74
2022/09/06 10:02:42;;;;;;;9.43;5.07;;;;;;;25.35;50.42;95347.81;5090663;28;20217;-74
2022/09/06 10:05:18;;;;;;;5.10;4.00;;;;;;;25.37;48.62;95369.91;5089962;28;20200;-75
2022/09/06 10:07:48;;;;;;;4.75;3.67;;;;;;;25.42;49.63;95371.75;5090428;28;20177;-76
2022/09/06 10:10:20;;;;;;;6.47;3.80;;;;;;;25.64;49.01;95373.88;5090707;28;20189;-77
2022/09/06 10:12:46;;;;;;;4.50;3.65;;;;;;;25.47;48.19;95368.97;5089936;28;20228;-76
2022/09/06 10:15:32;;;;;;;7.03;3.83;;;;;;;25.45;49.51;95357.66;5091507;28;21919;-76
2022/09/06 10:17:57;;;;;;;8.50;4.10;;;;;;;25.63;50.98;95366.88;5090326;28;20181;-77
2022/09/06 10:20:41;;;;;;;6.25;3.95;;;;;;;25.74;47.71;95368.31;5092080;28;20185;-76
2022/09/06 10:23:32;;;;;;;5.65;3.33;;;;;;;25.78;48.05;95367.44;5090199;28;20201;-76
2022/09/06 10:26:16;;;;;;;4.00;3.28;;;;;;;25.43;46.47;95363.34;5090557;28;20173;-77
2022/09/06 10:28:41;;;;;;;4.45;3.83;;;;;;;25.18;48.49;95351.00;5091502;28;20185;-76
2022/09/06 10:31:35;;;;;;;4.60;3.63;;;;;;;24.86;49.32;95347.38;5092804;28;20684;-76
2022/09/06 10:34:12;;;;;;;10.48;3.65;;;;;;;24.96;48.53;95347.28;5091021;28;20524;-76
2022/09/06 10:36:48;;;;;;;6.18;3.75;;;;;;;25.07;48.19;95349.56;5084459;28;20229;-76
2022/09/06 10:39:23;;;;;;;3.10;2.80;;;;;;;25.19;46.07;95347.22;5083904;28;20243;-76
2022/09/06 10:42:20;;;;;;;4.55;2.85;;;;;;;25.21;46.17;95343.44;5086973;28;20202;-76
2022/09/06 10:44:55;;;;;;;7.45;2.80;;;;;;;25.31;44.82;95349.50;5037410;28;20220;-77
2022/09/06 10:47:27;;;;;;;4.28;3.28;;;;;;;25.16;45.11;95312.78;5079994;28;20598;-76
2022/09/06 10:49:57;;;;;;;3.75;3.35;;;;;;;25.43;43.64;95347.16;5090294;28;20178;-77
2022/09/06 10:52:34;;;;;;;4.22;3.10;;;;;;;25.43;45.78;95319.38;5082524;28;20201;-76
2022/09/06 10:55:03;;;;;;;4.82;3.28;;;;;;;25.66;43.57;95342.00;5078580;28;20284;-75
2022/09/06 10:57:47;;;;;;;3.17;2.80;;;;;;;25.41;46.24;95327.78;5077027;28;20332;-75
2022/09/06 11:00:15;;;;;;;3.95;2.78;;;;;;;25.39;43.18;95338.06;5081362;28;20182;-76
2022/09/06 11:02:53;;;;;;;2.50;2.30;;;;;;;25.37;41.13;95331.34;5045084;28;20233;-76
2022/09/06 11:05:28;;;;;;;2.45;2.25;;;;;;;25.41;41.28;95327.00;5077721;28;20209;-76
2022/09/06 11:08:00;;;;;;;3.38;2.60;;;;;;;25.37;41.01;95326.75;5079607;28;20183;-77
2022/09/06 11:10:32;;;;;;;3.85;2.65;;;;;;;25.27;42.32;95331.50;5082539;28;20731;-76
2022/09/06 11:13:14;;;;;;;3.30;2.92;;;;;;;25.21;41.56;95324.59;5077972;28;20262;-76
2022/09/06 11:15:48;;;;;;;2.55;2.35;;;;;;;25.27;43.16;95320.72;5091026;28;20181;-77
2022/09/06 11:18:21;;;;;;;4.68;2.45;;;;;;;25.44;44.29;95321.81;5086885;28;20219;-75
2022/09/06 11:21:05;;;;;;;2.63;2.42;;;;;;;25.70;44.26;95316.84;5090255;28;20173;-75
2022/09/06 11:23:36;;;;;;;3.38;2.50;;;;;;;25.85;43.30;95322.00;5083745;28;20201;-77
2022/09/06 11:26:33;;;;;;;3.80;2.80;;;;;;;25.99;41.97;95305.03;5077988;28;20558;-76
2022/09/06 11:29:29;;;;;;;3.65;2.38;;;;;;;25.95;41.45;95318.31;5082027;28;20621;-75
2022/09/06 11:32:33;;;;;;;2.67;2.20;;;;;;;26.00;42.05;95320.13;5058035;28;20285;-76
2022/09/06 11:35:02;;;;;;;2.72;2.47;;;;;;;25.82;39.36;95297.50;5083644;28;20213;-76
2022/09/06 11:37:33;;;;;;;3.63;2.25;;;;;;;25.76;39.50;95317.59;5087314;28;20232;-77
2022/09/06 11:40:28;;;;;;;4.25;2.03;;;;;;;25.78;40.30;95308.06;5087940;28;20185;-77
2022/09/06 11:42:53;;;;;;;9.20;2.63;;;;;;;25.96;41.44;95305.63;5085933;28;20280;-76
2022/09/06 11:45:37;;;;;;;2.47;2.28;;;;;;;26.10;40.22;95301.06;5086555;28;20269;-77